Time;durP1;ratioP1;P1;durP2;ratioP2;P2;SDS_P1;SDS_P2;PMS_P1;PMS_P2;Temp;Humidity;BMP_temperature;BMP_pressure;BME280_temperature;BME280_humidity;BME280_pressure;Samples;Min_cycle;Max_cycle;Signal;HPM_P1;HPM_P2
2023/08/21 00:00:05;;;;;;;1.05;0.40;;;22.80;99.90;;;;;;4405229;32;20082;-74
2023/08/21 00:02:31;;;;;;;0.30;0.30;;;22.80;99.90;;;;;;4403822;32;20113;-74
2023/08/21 00:04:56;;;;;;;2.30;1.15;;;22.80;99.90;;;;;;4402924;32;20065;-74
2023/08/21 00:07:22;;;;;;;0.30;0.30;;;22.70;99.90;;;;;;4404655;32;20062;-74
2023/08/21 00:09:48;;;;;;;0.75;0.57;;;22.70;99.90;;;;;;4407681;32;20434;-73
2023/08/21 00:12:13;;;;;;;0.60;0.60;;;22.70;99.90;;;;;;4405978;32;20127;-74
2023/08/21 00:14:39;;;;;;;9.55;1.27;;;22.70;99.90;;;;;;4406310;32;20070;-73
2023/08/21 00:17:04;;;;;;;0.90;0.60;;;22.60;99.90;;;;;;4406040;32;20137;-74
2023/08/21 00:19:30;;;;;;;17.12;1.20;;;22.60;99.90;;;;;;4406293;32;20066;-74
2023/08/21 00:21:56;;;;;;;0.40;0.40;;;22.60;99.90;;;;;;4406087;32;20082;-74
2023/08/21 00:24:21;;;;;;;0.45;0.45;;;22.50;99.90;;;;;;4405783;32;20082;-73
2023/08/21 00:26:47;;;;;;;0.28;0.28;;;22.50;99.90;;;;;;4406379;32;20069;-74
2023/08/21 00:29:12;;;;;;;0.52;0.52;;;22.50;99.90;;;;;;4406196;32;20066;-74
2023/08/21 00:31:38;;;;;;;1.48;0.70;;;22.50;99.90;;;;;;4406771;32;20077;-73
2023/08/21 00:34:04;;;;;;;0.40;0.40;;;22.40;99.90;;;;;;4406644;32;20061;-73
2023/08/21 00:36:29;;;;;;;4.07;0.60;;;22.40;99.90;;;;;;4406962;32;20535;-73
2023/08/21 00:38:54;;;;;;;0.40;0.40;;;22.40;99.90;;;;;;4405728;32;20066;-75
2023/08/21 00:41:20;;;;;;;3.33;1.23;;;22.40;99.90;;;;;;4406701;32;20070;-73
2023/08/21 00:43:45;;;;;;;0.47;0.47;;;22.20;99.90;;;;;;4406448;32;20078;-74
2023/08/21 00:46:11;;;;;;;0.95;0.50;;;22.20;99.90;;;;;;4405567;32;20070;-74
2023/08/21 00:48:37;;;;;;;0.57;0.47;;;22.20;99.90;;;;;;4405965;32;20085;-74
2023/08/21 00:51:04;;;;;;;0.50;0.50;;;22.20;99.90;;;;;;4405787;32;20090;-74
2023/08/21 00:53:29;;;;;;;0.85;0.60;;;22.10;99.90;;;;;;4405715;32;20070;-73
2023/08/21 00:55:55;;;;;;;22.08;0.68;;;22.10;99.90;;;;;;4405685;32;20074;-73
2023/08/21 00:58:21;;;;;;;3.53;0.60;;;22.00;99.90;;;;;;4405368;32;20094;-74
2023/08/21 01:00:49;;;;;;;0.50;0.50;;;21.90;99.90;;;;;;4405675;32;20310;-73
2023/08/21 01:03:15;;;;;;;0.37;0.37;;;21.90;99.90;;;;;;4405022;32;20082;-74
2023/08/21 01:05:41;;;;;;;0.45;0.45;;;21.80;99.90;;;;;;4405465;32;20057;-74
2023/08/21 01:08:28;;;;;;;0.45;0.40;;;21.80;99.90;;;;;;4404862;32;20513;-73
2023/08/21 01:11:02;;;;;;;0.82;0.40;;;21.90;99.90;;;;;;4391101;32;20081;-75
2023/08/21 01:14:04;;;;;;;0.70;0.70;;;22.00;99.90;;;;;;4404878;32;20091;-75
2023/08/21 01:16:31;;;;;;;1.37;0.77;;;22.00;99.90;;;;;;4393377;32;20118;-74
2023/08/21 01:18:59;;;;;;;0.30;0.30;;;22.00;99.90;;;;;;4404108;32;20069;-75
2023/08/21 01:21:25;;;;;;;0.50;0.50;;;22.00;99.90;;;;;;4406250;32;20070;-75
2023/08/21 01:23:50;;;;;;;2.72;1.20;;;22.00;99.90;;;;;;4405775;32;20083;-75
2023/08/21 01:26:16;;;;;;;0.45;0.45;;;21.90;99.90;;;;;;4405431;32;20087;-75
2023/08/21 01:28:42;;;;;;;0.75;0.55;;;21.90;99.90;;;;;;4405328;32;20081;-75
2023/08/21 01:31:13;;;;;;;1.25;0.65;;;22.00;99.90;;;;;;4405123;32;20078;-75
2023/08/21 01:33:45;;;;;;;0.30;0.30;;;21.90;99.90;;;;;;4405085;32;20166;-74
2023/08/21 01:36:11;;;;;;;0.57;0.57;;;22.00;99.90;;;;;;4405571;32;20122;-74
2023/08/21 01:38:37;;;;;;;0.43;0.43;;;22.10;99.90;;;;;;4405850;32;20081;-74
2023/08/21 01:41:03;;;;;;;0.50;0.50;;;22.20;99.90;;;;;;4405499;32;20067;-74
2023/08/21 01:43:28;;;;;;;0.50;0.50;;;22.10;99.90;;;;;;4404770;32;20121;-74
2023/08/21 01:45:54;;;;;;;1.40;0.70;;;22.00;99.90;;;;;;4405496;32;20086;-74
2023/08/21 01:48:20;;;;;;;0.50;0.50;;;21.90;99.90;;;;;;4404459;32;20524;-74
2023/08/21 01:50:45;;;;;;;0.30;0.30;;;21.90;99.90;;;;;;4405372;32;20066;-73
2023/08/21 01:53:11;;;;;;;0.37;0.37;;;21.90;99.90;;;;;;4405740;32;20062;-73
2023/08/21 01:55:36;;;;;;;0.43;0.43;;;21.90;99.90;;;;;;4405129;32;20087;-74
2023/08/21 01:58:02;;;;;;;1.37;0.50;;;21.80;99.90;;;;;;4404486;32;20090;-74
2023/08/21 02:00:27;;;;;;;0.62;0.60;;;21.80;99.90;;;;;;4404885;32;20075;-74
2023/08/21 02:02:53;;;;;;;2.25;0.73;;;21.80;99.90;;;;;;4404170;32;20075;-74
2023/08/21 02:05:18;;;;;;;11.63;0.93;;;21.80;99.90;;;;;;4406405;32;20121;-74
2023/08/21 02:07:44;;;;;;;1.55;1.02;;;21.80;99.90;;;;;;4404121;32;20467;-74
2023/08/21 02:10:10;;;;;;;0.77;0.68;;;21.70;99.90;;;;;;4404745;32;20099;-74
2023/08/21 02:12:35;;;;;;;0.60;0.60;;;21.70;99.90;;;;;;4405780;32;20061;-74
2023/08/21 02:15:00;;;;;;;0.52;0.52;;;21.80;99.90;;;;;;4405861;32;20069;-74
2023/08/21 02:17:27;;;;;;;0.55;0.55;;;21.70;99.90;;;;;;4404113;32;20078;-74
2023/08/21 02:19:52;;;;;;;0.60;0.45;;;21.70;99.90;;;;;;4404325;32;20461;-74
2023/08/21 02:22:18;;;;;;;0.55;0.55;;;21.70;99.90;;;;;;4404852;32;20070;-74
2023/08/21 02:24:43;;;;;;;0.98;0.50;;;21.70;99.90;;;;;;4404828;32;20117;-74
2023/08/21 02:27:09;;;;;;;1.45;0.40;;;21.70;99.90;;;;;;4404513;32;20140;-74
2023/08/21 02:29:34;;;;;;;0.70;0.68;;;21.70;99.90;;;;;;4405205;32;20062;-74
2023/08/21 02:32:00;;;;;;;2.22;1.08;;;21.70;99.90;;;;;;4405386;32;20066;-74
2023/08/21 02:34:26;;;;;;;0.55;0.55;;;21.70;99.90;;;;;;4405515;32;20082;-74
2023/08/21 02:36:52;;;;;;;1.87;0.62;;;21.70;99.90;;;;;;4405352;32;20069;-74
2023/08/21 02:39:17;;;;;;;3.83;1.33;;;21.70;99.90;;;;;;4404269;32;20442;-74
2023/08/21 02:41:43;;;;;;;9.07;0.95;;;21.70;99.90;;;;;;4405245;32;20071;-74
2023/08/21 02:44:08;;;;;;;0.70;0.47;;;21.70;99.90;;;;;;4404741;32;20082;-74
2023/08/21 02:46:36;;;;;;;4.37;0.80;;;21.80;99.90;;;;;;4404770;32;20522;-74
2023/08/21 02:49:01;;;;;;;1.70;0.93;;;21.90;99.90;;;;;;4405677;32;20074;-74
2023/08/21 02:51:27;;;;;;;0.40;0.40;;;21.90;99.90;;;;;;4406259;32;20101;-74
2023/08/21 02:53:52;;;;;;;0.70;0.70;;;21.90;99.90;;;;;;4405317;32;20079;-74
2023/08/21 02:56:18;;;;;;;1.05;0.88;;;21.80;99.90;;;;;;4401420;32;20062;-74
2023/08/21 02:58:44;;;;;;;0.57;0.57;;;21.90;99.90;;;;;;4404770;32;20117;-74
2023/08/21 03:01:09;;;;;;;0.95;0.43;;;21.90;99.90;;;;;;4405980;32;20182;-74
2023/08/21 03:03:35;;;;;;;0.45;0.45;;;21.90;99.90;;;;;;4405170;32;20116;-74
2023/08/21 03:06:01;;;;;;;0.40;0.40;;;21.90;99.90;;;;;;4404999;32;20085;-74
2023/08/21 03:08:27;;;;;;;0.73;0.70;;;21.90;99.90;;;;;;4405250;32;20058;-75
2023/08/21 03:10:52;;;;;;;0.40;0.40;;;21.90;99.90;;;;;;4405885;32;20108;-74
2023/08/21 03:13:18;;;;;;;2.70;0.98;;;21.90;99.90;;;;;;4405169;32;20094;-74
2023/08/21 03:15:43;;;;;;;0.52;0.52;;;21.90;99.90;;;;;;4404561;32;20065;-74
2023/08/21 03:18:09;;;;;;;1.00;0.40;;;21.90;99.90;;;;;;4404990;32;20125;-74
2023/08/21 03:20:34;;;;;;;0.50;0.50;;;21.90;99.90;;;;;;4404917;32;20074;-74
2023/08/21 03:22:59;;;;;;;2.67;0.65;;;21.90;99.90;;;;;;4405417;32;20415;-74
2023/08/21 03:25:25;;;;;;;0.47;0.47;;;22.00;99.90;;;;;;4404949;32;20074;-74
2023/08/21 03:27:50;;;;;;;1.45;0.55;;;21.90;99.90;;;;;;4404145;32;20079;-74
2023/08/21 03:30:16;;;;;;;3.20;0.50;;;21.90;99.90;;;;;;4404382;32;20074;-74
2023/08/21 03:32:42;;;;;;;1.08;0.70;;;21.90;99.90;;;;;;4403527;32;20132;-74
2023/08/21 03:35:07;;;;;;;0.40;0.40;;;21.90;99.90;;;;;;4403668;32;20065;-74
2023/08/21 03:37:33;;;;;;;0.90;0.40;;;22.00;99.90;;;;;;4403405;32;20079;-74
2023/08/21 03:39:59;;;;;;;1.10;0.70;;;22.00;99.90;;;;;;4403332;32;20077;-74
2023/08/21 03:42:24;;;;;;;0.55;0.55;;;21.90;99.90;;;;;;4403762;32;20121;-74
2023/08/21 03:44:50;;;;;;;1.95;0.45;;;21.90;99.90;;;;;;4403008;32;20081;-74
2023/08/21 03:47:16;;;;;;;0.30;0.30;;;21.90;99.90;;;;;;4403589;32;20075;-74
2023/08/21 03:49:41;;;;;;;0.40;0.40;;;21.90;99.90;;;;;;4404024;32;20086;-74
2023/08/21 03:52:07;;;;;;;0.40;0.40;;;21.90;99.90;;;;;;4403646;32;20506;-74
2023/08/21 03:54:32;;;;;;;0.22;0.20;;;21.90;99.90;;;;;;4404334;32;20494;-75
2023/08/21 03:56:58;;;;;;;0.30;0.30;;;22.00;99.90;;;;;;4404926;32;20069;-74
2023/08/21 03:59:27;;;;;;;1.62;1.17;;;22.00;99.90;;;;;;4403372;32;20125;-74
2023/08/21 04:01:53;;;;;;;1.85;0.62;;;22.00;99.90;;;;;;4403457;32;20144;-74
2023/08/21 04:04:18;;;;;;;6.35;1.00;;;21.90;99.90;;;;;;4404261;32;20425;-75
2023/08/21 04:06:44;;;;;;;2.10;0.80;;;21.90;99.90;;;;;;4404202;32;20067;-74
2023/08/21 04:09:10;;;;;;;3.12;0.93;;;21.90;99.90;;;;;;4404749;32;20075;-74
2023/08/21 04:11:36;;;;;;;1.55;0.68;;;22.00;99.90;;;;;;4404345;32;20543;-75
2023/08/21 04:14:01;;;;;;;0.52;0.52;;;22.00;99.90;;;;;;4403493;32;20062;-74
2023/08/21 04:16:28;;;;;;;0.37;0.37;;;22.00;99.90;;;;;;4403499;32;20091;-74
2023/08/21 04:18:53;;;;;;;0.30;0.30;;;22.00;99.90;;;;;;4403831;32;20117;-74
2023/08/21 04:21:19;;;;;;;9.02;1.10;;;22.00;99.90;;;;;;4403304;32;20078;-74
2023/08/21 04:23:46;;;;;;;0.85;0.68;;;22.00;99.90;;;;;;4403427;32;20058;-74
2023/08/21 04:26:11;;;;;;;2.30;0.50;;;21.90;99.90;;;;;;4403235;32;20114;-74
2023/08/21 04:28:37;;;;;;;0.30;0.30;;;21.80;99.90;;;;;;4404388;32;20129;-74
2023/08/21 04:31:06;;;;;;;0.75;0.60;;;21.80;99.90;;;;;;4405417;32;20098;-74
2023/08/21 04:33:32;;;;;;;1.75;0.77;;;21.80;99.90;;;;;;4404155;32;20073;-74
2023/08/21 04:35:58;;;;;;;2.60;1.12;;;21.90;99.90;;;;;;4402821;32;20068;-74
2023/08/21 04:38:23;;;;;;;0.30;0.30;;;21.90;99.90;;;;;;4403912;32;20083;-74
2023/08/21 04:40:49;;;;;;;0.30;0.30;;;21.90;99.90;;;;;;4403703;32;20065;-74
2023/08/21 04:43:14;;;;;;;0.68;0.57;;;21.80;99.90;;;;;;4402911;32;20130;-74
2023/08/21 04:45:55;;;;;;;0.50;0.50;;;21.80;99.90;;;;;;4403058;32;20069;-75
2023/08/21 04:48:21;;;;;;;0.52;0.52;;;21.70;99.90;;;;;;4403534;32;20086;-74
2023/08/21 04:50:46;;;;;;;1.58;0.60;;;21.80;99.90;;;;;;4404161;32;20070;-74
2023/08/21 04:53:12;;;;;;;0.50;0.50;;;21.80;99.90;;;;;;4405260;32;20073;-74
2023/08/21 04:55:40;;;;;;;0.30;0.30;;;21.80;99.90;;;;;;4406718;32;20073;-74
2023/08/21 04:58:06;;;;;;;0.40;0.40;;;21.90;99.90;;;;;;4406939;32;20082;-74
2023/08/21 05:00:31;;;;;;;0.40;0.40;;;21.70;99.90;;;;;;4405605;32;20138;-74
2023/08/21 05:02:57;;;;;;;0.37;0.37;;;21.70;99.90;;;;;;4405183;32;20730;-74
2023/08/21 05:05:22;;;;;;;0.73;0.68;;;21.70;99.90;;;;;;4406341;32;20087;-74
2023/08/21 05:07:48;;;;;;;0.30;0.30;;;21.70;99.90;;;;;;4405813;32;20058;-74
2023/08/21 05:10:13;;;;;;;0.40;0.40;;;21.80;99.90;;;;;;4404975;32;20082;-74
2023/08/21 05:12:39;;;;;;;1.35;0.70;;;21.80;99.90;;;;;;4404568;32;20113;-74
2023/08/21 05:15:05;;;;;;;0.50;0.50;;;21.80;99.90;;;;;;4405399;32;20420;-74
2023/08/21 05:17:30;;;;;;;0.43;0.43;;;21.90;99.90;;;;;;4405867;32;20070;-74
2023/08/21 05:19:56;;;;;;;0.95;0.47;;;21.90;99.90;;;;;;4406331;32;20074;-74
2023/08/21 05:22:21;;;;;;;0.32;0.32;;;22.00;99.90;;;;;;4406042;32;20154;-74
2023/08/21 05:24:47;;;;;;;0.30;0.30;;;22.10;99.90;;;;;;4406834;32;20142;-74
2023/08/21 05:27:12;;;;;;;0.57;0.55;;;22.10;99.90;;;;;;4405620;32;20384;-74
2023/08/21 05:29:38;;;;;;;0.40;0.40;;;22.10;99.90;;;;;;4404734;32;20062;-74
2023/08/21 05:32:04;;;;;;;0.32;0.32;;;22.10;99.90;;;;;;4405667;32;20083;-74
2023/08/21 05:34:30;;;;;;;3.50;0.62;;;22.10;99.90;;;;;;4406349;32;20121;-74
2023/08/21 05:36:56;;;;;;;0.60;0.55;;;22.20;99.90;;;;;;4404933;32;20065;-74
2023/08/21 05:39:21;;;;;;;1.05;0.55;;;22.20;99.90;;;;;;4407889;32;20061;-73
2023/08/21 05:41:47;;;;;;;1.33;0.45;;;22.10;99.90;;;;;;4406759;32;20066;-74
2023/08/21 05:44:12;;;;;;;0.37;0.37;;;22.10;99.90;;;;;;4405959;32;20383;-73
2023/08/21 05:46:38;;;;;;;1.52;0.68;;;22.10;99.90;;;;;;4406300;32;20121;-74
2023/08/21 05:49:03;;;;;;;1.25;0.55;;;22.20;99.90;;;;;;4408626;32;20467;-74
2023/08/21 05:51:29;;;;;;;0.30;0.30;;;22.30;99.90;;;;;;4406578;32;20086;-75
2023/08/21 05:53:55;;;;;;;0.25;0.25;;;22.40;99.90;;;;;;4407258;32;20105;-75
2023/08/21 05:56:21;;;;;;;6.10;0.68;;;22.60;99.90;;;;;;4407078;32;20192;-74
2023/08/21 05:58:47;;;;;;;1.23;0.43;;;22.60;99.90;;;;;;4408060;32;20359;-75
2023/08/21 06:01:12;;;;;;;0.62;0.62;;;22.70;99.90;;;;;;4407705;32;20082;-74
2023/08/21 06:03:38;;;;;;;1.60;0.70;;;22.80;99.90;;;;;;4394550;32;20083;-74
2023/08/21 06:06:03;;;;;;;0.30;0.30;;;22.90;99.90;;;;;;4396143;32;20059;-74
2023/08/21 06:08:29;;;;;;;17.37;1.02;;;23.00;99.90;;;;;;4394509;32;20075;-75
2023/08/21 06:10:54;;;;;;;0.80;0.65;;;23.10;99.90;;;;;;4390641;32;20079;-74
2023/08/21 06:13:20;;;;;;;0.55;0.37;;;23.10;99.90;;;;;;4391558;32;20130;-73
2023/08/21 06:15:45;;;;;;;0.85;0.50;;;23.20;99.90;;;;;;4391562;32;20058;-73
2023/08/21 06:18:11;;;;;;;0.30;0.30;;;23.20;99.90;;;;;;4391083;32;20062;-75
2023/08/21 06:20:37;;;;;;;0.70;0.60;;;23.40;99.90;;;;;;4393347;32;20182;-75
2023/08/21 06:23:02;;;;;;;1.55;1.00;;;23.50;99.90;;;;;;4394145;32;20074;-73
2023/08/21 06:25:30;;;;;;;0.73;0.73;;;23.50;99.90;;;;;;4394741;32;20066;-74
2023/08/21 06:27:55;;;;;;;1.20;0.68;;;23.60;99.90;;;;;;4391385;32;20098;-75
2023/08/21 06:30:21;;;;;;;1.05;0.82;;;23.60;99.90;;;;;;4395029;32;20093;-73
2023/08/21 06:32:46;;;;;;;0.50;0.50;;;23.60;99.90;;;;;;4394847;32;20078;-74
2023/08/21 06:35:13;;;;;;;2.72;0.90;;;23.50;99.90;;;;;;4404258;32;20058;-74
2023/08/21 06:37:39;;;;;;;0.30;0.30;;;23.50;99.90;;;;;;4410067;32;20070;-74
2023/08/21 06:40:06;;;;;;;3.60;0.90;;;23.50;99.90;;;;;;4409543;32;20103;-74
2023/08/21 06:42:32;;;;;;;1.55;0.62;;;23.50;99.90;;;;;;4410315;32;20135;-73
2023/08/21 06:44:57;;;;;;;0.73;0.40;;;23.50;99.90;;;;;;4408228;32;20112;-73
2023/08/21 06:47:23;;;;;;;2.08;0.60;;;23.50;99.90;;;;;;4409842;32;20077;-74
2023/08/21 06:49:48;;;;;;;0.60;0.32;;;23.50;99.90;;;;;;4407395;32;20059;-74
2023/08/21 06:52:14;;;;;;;1.17;0.60;;;23.50;99.90;;;;;;4407033;32;20447;-75
2023/08/21 06:54:39;;;;;;;0.30;0.30;;;23.60;99.90;;;;;;4407237;32;20082;-75
2023/08/21 06:57:05;;;;;;;0.55;0.40;;;23.60;99.90;;;;;;4419170;27;20094;-67
2023/08/21 06:59:30;;;;;;;1.85;1.30;;;23.60;99.90;;;;;;4398158;32;20078;-67
2023/08/21 07:01:56;;;;;;;0.40;0.40;;;23.60;99.90;;;;;;4396234;32;20513;-68
2023/08/21 07:04:21;;;;;;;0.30;0.30;;;23.70;99.90;;;;;;4398849;32;20121;-68
2023/08/21 07:06:46;;;;;;;2.62;1.15;;;23.60;99.90;;;;;;4398790;32;20081;-68
2023/08/21 07:09:12;;;;;;;0.62;0.62;;;23.50;99.90;;;;;;4398054;32;20120;-67
2023/08/21 07:11:37;;;;;;;0.45;0.45;;;23.50;99.90;;;;;;4396649;32;20074;-67
2023/08/21 07:14:03;;;;;;;3.90;0.52;;;23.60;99.90;;;;;;4392736;32;20073;-67
2023/08/21 07:16:28;;;;;;;0.82;0.50;;;23.70;99.90;;;;;;4396842;32;20081;-67
2023/08/21 07:18:54;;;;;;;0.32;0.32;;;23.60;99.90;;;;;;4397728;32;20482;-69
2023/08/21 07:21:20;;;;;;;0.40;0.40;;;23.70;99.90;;;;;;4397928;32;20066;-68
2023/08/21 07:23:45;;;;;;;0.30;0.30;;;23.80;99.90;;;;;;4396910;32;20145;-67
2023/08/21 07:26:11;;;;;;;0.60;0.45;;;23.80;99.90;;;;;;4384447;32;20096;-65
2023/08/21 07:28:37;;;;;;;0.20;0.20;;;23.80;99.90;;;;;;4377670;32;20081;-66
2023/08/21 07:31:02;;;;;;;0.30;0.30;;;23.80;99.90;;;;;;4392314;32;20099;-67
2023/08/21 07:33:28;;;;;;;0.77;0.70;;;23.90;99.90;;;;;;4384710;32;20083;-66
2023/08/21 07:35:57;;;;;;;0.20;0.20;;;23.90;99.90;;;;;;4394492;32;20124;-66
2023/08/21 07:38:23;;;;;;;0.53;0.53;;;23.90;99.90;;;;;;4387785;32;20094;-65
2023/08/21 07:40:48;;;;;;;0.30;0.30;;;24.00;99.90;;;;;;4394545;32;20824;-65
2023/08/21 07:43:14;;;;;;;1.27;1.02;;;24.10;99.90;;;;;;4389125;32;20062;-64
2023/08/21 07:45:39;;;;;;;3.25;1.27;;;24.00;99.90;;;;;;4392817;32;20070;-66
2023/08/21 07:48:05;;;;;;;0.40;0.40;;;24.00;99.90;;;;;;4395304;32;20102;-67
2023/08/21 07:50:30;;;;;;;0.82;0.80;;;24.00;99.90;;;;;;4390821;32;20114;-67
2023/08/21 07:52:56;;;;;;;0.40;0.40;;;24.10;99.90;;;;;;4376387;32;20171;-66
2023/08/21 07:55:21;;;;;;;0.20;0.20;;;24.10;99.90;;;;;;4382801;32;20065;-67
2023/08/21 07:57:47;;;;;;;0.30;0.30;;;24.20;99.90;;;;;;4388609;32;20447;-66
2023/08/21 08:00:13;;;;;;;0.40;0.40;;;24.30;99.90;;;;;;4392008;32;20097;-67
2023/08/21 08:02:39;;;;;;;1.35;0.80;;;24.40;99.90;;;;;;4392251;32;20525;-67
2023/08/21 08:05:05;;;;;;;0.20;0.20;;;24.40;99.90;;;;;;4381664;32;20235;-66
2023/08/21 08:07:30;;;;;;;0.17;0.17;;;24.50;99.90;;;;;;4388762;32;20054;-66
2023/08/21 08:09:56;;;;;;;0.52;0.20;;;24.60;99.90;;;;;;4390178;32;20058;-66
2023/08/21 08:12:21;;;;;;;0.25;0.25;;;24.70;99.90;;;;;;4387477;32;20166;-66
2023/08/21 08:14:47;;;;;;;0.30;0.30;;;24.70;99.90;;;;;;4385377;32;20189;-64
2023/08/21 08:17:12;;;;;;;0.45;0.32;;;24.70;99.90;;;;;;4382658;32;20087;-65
2023/08/21 08:19:37;;;;;;;3.30;0.40;;;24.70;99.90;;;;;;4372167;32;20165;-66
2023/08/21 08:22:03;;;;;;;3.55;0.98;;;24.70;99.90;;;;;;4385212;32;20070;-66
2023/08/21 08:24:28;;;;;;;0.15;0.15;;;24.70;99.90;;;;;;4385490;32;20101;-65
2023/08/21 08:26:55;;;;;;;2.05;0.20;;;24.70;99.90;;;;;;4392322;32;20781;-65
2023/08/21 08:29:20;;;;;;;0.90;0.40;;;24.70;99.90;;;;;;4391511;32;20120;-67
2023/08/21 08:31:46;;;;;;;0.25;0.25;;;24.70;99.90;;;;;;4393883;32;20542;-67
2023/08/21 08:34:11;;;;;;;0.35;0.30;;;24.70;99.90;;;;;;4393990;32;20118;-66
2023/08/21 08:36:37;;;;;;;0.85;0.73;;;24.50;99.90;;;;;;4394113;32;20066;-67
2023/08/21 08:39:02;;;;;;;0.13;0.13;;;24.50;99.90;;;;;;4396490;32;20145;-67
2023/08/21 08:41:38;;;;;;;0.20;0.10;;;24.50;99.90;;;;;;4395450;32;20079;-66
2023/08/21 08:44:04;;;;;;;0.10;0.10;;;24.70;99.90;;;;;;4395021;32;20071;-66
2023/08/21 08:46:30;;;;;;;0.20;0.20;;;24.80;99.90;;;;;;4391504;32;20893;-67
2023/08/21 08:48:56;;;;;;;1.27;0.50;;;24.80;99.90;;;;;;4390819;32;20094;-66
2023/08/21 08:51:24;;;;;;;0.20;0.20;;;24.80;99.90;;;;;;4392750;32;20066;-66
2023/08/21 08:53:50;;;;;;;4.25;1.25;;;24.80;99.90;;;;;;4394680;32;20078;-66
2023/08/21 08:56:15;;;;;;;1.45;0.50;;;24.90;99.90;;;;;;4394206;32;20135;-67
2023/08/21 08:58:42;;;;;;;2.50;0.17;;;24.90;99.90;;;;;;4391071;32;20125;-67
2023/08/21 09:01:12;;;;;;;0.10;0.10;;;24.90;99.90;;;;;;4382293;32;20109;-65
2023/08/21 09:03:38;;;;;;;0.10;0.10;;;25.10;99.90;;;;;;4378040;32;20110;-66
2023/08/21 09:06:04;;;;;;;0.10;0.10;;;25.30;99.90;;;;;;4388898;32;20066;-66
2023/08/21 09:08:29;;;;;;;0.20;0.05;;;25.50;99.90;;;;;;4393900;32;20083;-66
2023/08/21 09:10:55;;;;;;;0.20;0.20;;;25.80;99.90;;;;;;4396459;32;20073;-65
2023/08/21 09:13:20;;;;;;;0.10;0.10;;;26.00;99.90;;;;;;4392317;32;20454;-66
2023/08/21 09:15:48;;;;;;;0.15;0.15;;;26.10;99.90;;;;;;4394037;32;20090;-66
2023/08/21 09:18:15;;;;;;;0.10;0.10;;;26.10;99.90;;;;;;4393842;32;20106;-66
2023/08/21 09:20:41;;;;;;;1.08;0.35;;;26.20;99.90;;;;;;4394460;32;20133;-68
2023/08/21 09:23:07;;;;;;;0.00;0.00;;;26.30;99.70;;;;;;4393395;32;20085;-68
2023/08/21 09:25:36;;;;;;;0.32;0.32;;;26.40;99.90;;;;;;4395867;32;20130;-66
2023/08/21 09:28:05;;;;;;;0.77;0.43;;;26.40;99.90;;;;;;4395690;32;20079;-66
2023/08/21 09:30:44;;;;;;;0.13;0.13;;;26.40;99.90;;;;;;4395486;32;20079;-67
2023/08/21 09:33:09;;;;;;;0.00;0.00;;;26.60;99.90;;;;;;4394126;32;20083;-66
2023/08/21 09:35:35;;;;;;;1.27;0.40;;;26.60;99.90;;;;;;4397327;32;20078;-67
2023/08/21 09:38:00;;;;;;;6.85;2.72;;;26.60;99.90;;;;;;4395545;32;20134;-67
2023/08/21 09:40:26;;;;;;;1.00;0.80;;;26.70;99.90;;;;;;4396184;32;20323;-67
2023/08/21 09:42:53;;;;;;;0.10;0.10;;;27.00;99.90;;;;;;4395237;32;20143;-67
2023/08/21 09:45:23;;;;;;;1.00;0.35;;;27.10;99.90;;;;;;4393995;32;20082;-66
2023/08/21 09:47:50;;;;;;;0.00;0.00;;;27.00;99.70;;;;;;4394997;32;20420;-66
2023/08/21 09:50:17;;;;;;;0.10;0.10;;;27.10;99.60;;;;;;4393399;32;20794;-66
2023/08/21 09:52:44;;;;;;;0.10;0.10;;;27.20;99.50;;;;;;4395603;32;20550;-66
2023/08/21 09:55:10;;;;;;;0.10;0.10;;;27.50;98.80;;;;;;4393979;32;20073;-66
2023/08/21 09:57:36;;;;;;;0.20;0.20;;;27.60;99.10;;;;;;4393986;32;20098;-66
2023/08/21 10:00:15;;;;;;;0.00;0.00;;;27.60;97.60;;;;;;4394971;32;20094;-66
2023/08/21 10:02:43;;;;;;;0.10;0.10;;;27.70;97.70;;;;;;4393041;32;20558;-66
2023/08/21 10:05:10;;;;;;;0.10;0.10;;;27.80;98.00;;;;;;4397929;32;20078;-67
2023/08/21 10:07:37;;;;;;;0.20;0.20;;;27.80;97.30;;;;;;4388604;32;20114;-66
2023/08/21 10:10:02;;;;;;;0.10;0.10;;;27.50;97.60;;;;;;4394084;32;20081;-66
2023/08/21 10:12:28;;;;;;;0.00;0.00;;;27.40;97.80;;;;;;4394809;32;20148;-66
2023/08/21 10:14:53;;;;;;;1.17;0.85;;;27.20;97.50;;;;;;4396903;32;20077;-66
2023/08/21 10:17:20;;;;;;;0.10;0.10;;;27.40;98.50;;;;;;4393780;32;20075;-66
2023/08/21 10:19:52;;;;;;;0.00;0.00;;;27.60;97.00;;;;;;4394231;32;20062;-66
2023/08/21 10:22:38;;;;;;;0.20;0.20;;;27.60;98.00;;;;;;4396229;32;20057;-66
2023/08/21 10:25:15;;;;;;;0.10;0.10;;;27.60;97.00;;;;;;4382606;32;20098;-66
2023/08/21 10:27:42;;;;;;;0.05;0.05;;;27.90;97.40;;;;;;4394965;32;20090;-66
2023/08/21 10:30:14;;;;;;;0.00;0.00;;;28.00;95.90;;;;;;4396234;32;20098;-67
2023/08/21 10:32:47;;;;;;;2.53;0.20;;;28.00;96.20;;;;;;4393441;32;20069;-66
2023/08/21 10:35:18;;;;;;;0.10;0.10;;;28.20;96.10;;;;;;4396895;32;20077;-67
2023/08/21 10:38:07;;;;;;;0.20;0.20;;;28.30;96.00;;;;;;4394467;32;20063;-66
2023/08/21 10:40:34;;;;;;;0.10;0.10;;;28.60;96.70;;;;;;4383214;32;20125;-66
2023/08/21 10:43:00;;;;;;;0.13;0.13;;;28.50;96.20;;;;;;4395762;32;20194;-67
2023/08/21 10:45:25;;;;;;;0.00;0.00;;;28.80;95.50;;;;;;4391318;32;20735;-66
2023/08/21 10:47:51;;;;;;;0.10;0.10;;;28.90;96.50;;;;;;4388963;32;20077;-67
2023/08/21 10:50:16;;;;;;;2.78;0.43;;;29.00;96.10;;;;;;4395824;32;20404;-67
2023/08/21 10:52:45;;;;;;;0.70;0.68;;;29.30;95.70;;;;;;4395186;32;20430;-67
2023/08/21 10:55:12;;;;;;;0.10;0.08;;;29.50;95.10;;;;;;4394381;32;20136;-65
2023/08/21 10:57:38;;;;;;;0.10;0.10;;;29.70;94.30;;;;;;4392842;32;20086;-66
2023/08/21 11:00:09;;;;;;;0.08;0.08;;;30.00;94.10;;;;;;4395749;32;20086;-66
2023/08/21 11:02:35;;;;;;;;;;;30.20;94.20;;;;;;4397147;32;20153;-66
2023/08/21 11:05:02;;;;;;;0.20;0.20;;;29.80;93.40;;;;;;4396196;32;19995;-66
2023/08/21 11:07:28;;;;;;;0.10;0.10;;;29.30;95.40;;;;;;4392258;32;20117;-66
2023/08/21 11:09:54;;;;;;;0.10;0.10;;;29.70;94.80;;;;;;4395169;32;20054;-66
2023/08/21 11:12:22;;;;;;;0.13;0.10;;;29.50;94.80;;;;;;4392665;32;20054;-66
2023/08/21 11:14:47;;;;;;;0.10;0.10;;;29.30;94.40;;;;;;4393647;32;20447;-66
2023/08/21 11:17:13;;;;;;;0.30;0.30;;;29.20;94.30;;;;;;4392450;32;20066;-66
2023/08/21 11:19:40;;;;;;;0.10;0.10;;;29.10;94.90;;;;;;4394000;32;20150;-66
2023/08/21 11:22:06;;;;;;;0.20;0.20;;;28.90;95.80;;;;;;4394716;32;20098;-67
2023/08/21 11:24:48;;;;;;;0.22;0.20;;;28.80;96.40;;;;;;4391099;32;20103;-66
2023/08/21 11:27:16;;;;;;;0.10;0.10;;;28.60;97.00;;;;;;4389828;32;20065;-66
2023/08/21 11:29:45;;;;;;;0.95;0.32;;;28.90;95.70;;;;;;4395031;32;20117;-66
2023/08/21 11:32:16;;;;;;;0.35;0.35;;;29.20;95.90;;;;;;4395918;32;20093;-67
2023/08/21 11:34:46;;;;;;;0.17;0.17;;;29.90;94.00;;;;;;4395621;32;20062;-66
2023/08/21 11:37:12;;;;;;;;;;;30.60;93.00;;;;;;4395593;32;20119;-66
2023/08/21 11:39:41;;;;;;;0.10;0.10;;;30.90;92.50;;;;;;4393090;32;19981;-67
2023/08/21 11:42:13;;;;;;;0.15;0.10;;;31.20;92.00;;;;;;4394333;32;20494;-66
2023/08/21 11:44:56;;;;;;;0.10;0.10;;;31.20;91.20;;;;;;4390783;32;20514;-66
2023/08/21 11:47:23;;;;;;;0.00;0.00;;;30.60;92.40;;;;;;4379754;32;85449;-66
2023/08/21 11:49:49;;;;;;;0.00;0.00;;;30.30;92.50;;;;;;4391362;32;20057;-66
2023/08/21 11:52:21;;;;;;;0.00;0.00;;;30.40;92.00;;;;;;4392475;32;21685;-65
2023/08/21 11:54:49;;;;;;;0.10;0.10;;;30.10;92.50;;;;;;4395174;32;20102;-66
2023/08/21 11:57:15;;;;;;;0.15;0.15;;;29.80;93.30;;;;;;4393541;32;20577;-67
2023/08/21 11:59:41;;;;;;;2.62;0.73;;;29.80;91.50;;;;;;4394255;32;20117;-67
2023/08/21 12:02:14;;;;;;;0.47;0.30;;;29.70;92.20;;;;;;4387418;32;20091;-67
2023/08/21 12:04:40;;;;;;;1.35;0.80;;;29.40;93.10;;;;;;4393141;32;20077;-67
2023/08/21 12:07:06;;;;;;;0.00;0.00;;;29.10;93.60;;;;;;4394849;32;20442;-67
2023/08/21 12:09:32;;;;;;;0.13;0.13;;;29.00;93.90;;;;;;4390443;32;20062;-67
2023/08/21 12:11:57;;;;;;;0.03;0.03;;;28.90;94.20;;;;;;4393369;32;20191;-66
2023/08/21 12:14:23;;;;;;;0.15;0.15;;;28.90;95.00;;;;;;4395273;32;20471;-67
2023/08/21 12:16:48;;;;;;;1.55;0.15;;;29.00;94.50;;;;;;4393132;32;20073;-67
2023/08/21 12:19:14;;;;;;;0.10;0.10;;;29.00;96.60;;;;;;4392201;32;20089;-67
2023/08/21 12:21:40;;;;;;;0.10;0.10;;;29.20;93.70;;;;;;4393379;32;20075;-67
2023/08/21 12:24:06;;;;;;;0.43;0.35;;;29.20;94.20;;;;;;4393427;32;20463;-67
2023/08/21 12:26:32;;;;;;;5.78;1.23;;;29.00;94.00;;;;;;4393212;32;20082;-66
2023/08/21 12:28:58;;;;;;;0.20;0.20;;;28.60;94.60;;;;;;4394012;32;20093;-66
2023/08/21 12:31:23;;;;;;;0.05;0.05;;;28.40;94.70;;;;;;4392324;32;20117;-67
2023/08/21 12:33:49;;;;;;;0.25;0.25;;;28.50;94.10;;;;;;4394678;32;20077;-67
2023/08/21 12:36:14;;;;;;;0.03;0.03;;;28.90;94.00;;;;;;4394274;32;20534;-67
2023/08/21 12:38:40;;;;;;;0.00;0.00;;;29.00;94.40;;;;;;4394362;32;20062;-66
2023/08/21 12:41:05;;;;;;;0.10;0.10;;;29.10;93.40;;;;;;4388113;32;20082;-66
2023/08/21 12:43:32;;;;;;;3.30;1.20;;;29.20;93.30;;;;;;4389388;32;20416;-67